Time;durP1;ratioP1;P1;durP2;ratioP2;P2;SDS_P1;SDS_P2;PMS_P1;PMS_P2;Temp;Humidity;BMP_temperature;BMP_pressure;BME280_temperature;BME280_humidity;BME280_pressure;Samples;Min_cycle;Max_cycle;Signal;HPM_P1;HPM_P2
2023/12/22 00:01:15;;;;;;;1.87;1.00;;;21.80;73.30;;;;;;5039341;28;20462;-52
2023/12/22 00:03:41;;;;;;;2.23;1.40;;;21.70;73.10;;;;;;5036900;28;20499;-55
2023/12/22 00:06:08;;;;;;;2.57;1.40;;;21.70;73.30;;;;;;5037798;28;20613;-55
2023/12/22 00:08:35;;;;;;;1.17;0.77;;;21.70;73.30;;;;;;5037654;28;20485;-55
2023/12/22 00:11:02;;;;;;;1.30;0.80;;;21.70;73.30;;;;;;5036967;28;20477;-57
2023/12/22 00:13:30;;;;;;;1.90;0.90;;;21.70;73.30;;;;;;5034599;28;20481;-57
2023/12/22 00:15:57;;;;;;;1.77;0.80;;;21.70;73.30;;;;;;5035434;28;20463;-58
2023/12/22 00:18:23;;;;;;;1.20;1.00;;;21.70;73.20;;;;;;5038292;28;20715;-57
2023/12/22 00:20:50;;;;;;;2.47;1.00;;;21.70;73.30;;;;;;5036523;28;20817;-56
2023/12/22 00:23:17;;;;;;;1.93;0.80;;;21.70;73.30;;;;;;5039434;28;20460;-59
2023/12/22 00:25:43;;;;;;;1.47;0.93;;;21.70;73.40;;;;;;5037695;28;20476;-57
2023/12/22 00:28:10;;;;;;;1.87;1.10;;;21.60;73.30;;;;;;5037105;28;20464;-58
2023/12/22 00:30:38;;;;;;;2.20;1.07;;;21.60;73.30;;;;;;5036300;28;20465;-58
2023/12/22 00:33:05;;;;;;;1.40;0.90;;;21.60;73.30;;;;;;5036277;28;20822;-58
2023/12/22 00:35:33;;;;;;;1.70;1.03;;;21.60;73.30;;;;;;5036607;28;20453;-55
2023/12/22 00:37:59;;;;;;;2.33;0.90;;;21.60;73.40;;;;;;5037009;28;20459;-56
2023/12/22 00:40:26;;;;;;;1.97;1.10;;;21.60;73.40;;;;;;5038007;28;20460;-55
2023/12/22 00:42:53;;;;;;;1.97;1.17;;;21.60;73.40;;;;;;5038896;28;20461;-57
2023/12/22 00:45:19;;;;;;;1.77;0.80;;;21.60;73.40;;;;;;5033975;28;20452;-59
2023/12/22 00:47:47;;;;;;;2.30;0.90;;;21.60;73.50;;;;;;5039424;28;20453;-57
2023/12/22 00:50:14;;;;;;;1.17;0.70;;;21.50;73.30;;;;;;5038905;28;20990;-58
2023/12/22 00:52:41;;;;;;;10.00;1.10;;;21.50;73.30;;;;;;5038404;28;20836;-59
2023/12/22 00:55:08;;;;;;;2.43;1.00;;;21.50;73.40;;;;;;5034949;28;20487;-59
2023/12/22 00:57:35;;;;;;;1.63;0.90;;;21.50;73.40;;;;;;5037653;28;20464;-59
2023/12/22 01:00:04;;;;;;;1.87;0.90;;;21.50;73.40;;;;;;5033684;28;20561;-54
2023/12/22 01:02:31;;;;;;;1.73;0.77;;;21.50;73.30;;;;;;5037456;28;20484;-58
2023/12/22 01:04:59;;;;;;;2.50;1.17;;;21.50;73.50;;;;;;5034569;28;20465;-57
2023/12/22 01:07:26;;;;;;;1.50;0.90;;;21.50;73.50;;;;;;5034070;28;20978;-56
2023/12/22 01:09:53;;;;;;;1.73;0.90;;;21.50;73.40;;;;;;5032990;28;20464;-56
2023/12/22 01:12:20;;;;;;;2.60;1.03;;;21.50;73.40;;;;;;5035624;28;20649;-57
2023/12/22 01:14:49;;;;;;;2.43;0.93;;;21.50;73.40;;;;;;5034679;28;20463;-59
2023/12/22 01:17:15;;;;;;;1.50;1.10;;;21.40;73.40;;;;;;5038798;28;20469;-57
2023/12/22 01:19:42;;;;;;;3.83;0.70;;;21.40;73.20;;;;;;5035904;28;20453;-59
2023/12/22 01:22:10;;;;;;;1.57;0.97;;;21.50;73.50;;;;;;5033674;28;20910;-59
2023/12/22 01:24:39;;;;;;;1.77;1.00;;;21.40;73.50;;;;;;5034891;28;20465;-57
2023/12/22 01:27:06;;;;;;;2.67;1.20;;;21.40;73.50;;;;;;5037793;28;20537;-58
2023/12/22 01:29:33;;;;;;;2.73;0.80;;;21.40;73.50;;;;;;5033868;28;20453;-58
2023/12/22 01:31:59;;;;;;;1.20;0.80;;;21.40;73.50;;;;;;5038099;28;20465;-55
2023/12/22 01:34:26;;;;;;;2.20;0.90;;;21.40;73.40;;;;;;5037808;28;20473;-55
2023/12/22 01:36:53;;;;;;;1.47;0.90;;;21.40;73.40;;;;;;5037323;28;20465;-57
2023/12/22 01:39:21;;;;;;;1.70;0.95;;;21.30;73.40;;;;;;5033934;28;21127;-57
2023/12/22 01:41:47;;;;;;;1.20;0.80;;;21.30;73.50;;;;;;5036999;28;20551;-58
2023/12/22 01:44:14;;;;;;;1.80;1.30;;;21.30;73.40;;;;;;5038679;28;27643;-57
2023/12/22 01:46:41;;;;;;;3.13;1.10;;;21.30;73.40;;;;;;5036519;28;20456;-52
2023/12/22 01:49:09;;;;;;;2.90;1.57;;;21.40;73.70;;;;;;5032758;28;20967;-58
2023/12/22 01:51:40;;;;;;;1.80;0.90;;;21.30;73.40;;;;;;5033862;28;20471;-58
2023/12/22 01:54:07;;;;;;;1.23;0.80;;;21.30;73.30;;;;;;5033395;28;20892;-58
2023/12/22 01:56:35;;;;;;;1.40;0.93;;;21.30;73.50;;;;;;5035608;28;20218;-55
2023/12/22 01:59:02;;;;;;;1.50;1.00;;;21.30;73.40;;;;;;5032724;28;20770;-56
2023/12/22 02:01:30;;;;;;;1.20;0.90;;;21.30;73.40;;;;;;5034179;28;20470;-57
2023/12/22 02:03:57;;;;;;;1.47;0.90;;;21.30;73.50;;;;;;5032609;28;20932;-55
2023/12/22 02:06:25;;;;;;;1.40;1.00;;;21.30;73.50;;;;;;5030481;28;20954;-54
2023/12/22 02:08:52;;;;;;;3.20;0.90;;;21.30;73.50;;;;;;5035083;28;20456;-58
2023/12/22 02:11:19;;;;;;;1.70;0.80;;;21.30;73.60;;;;;;5036952;28;20460;-59
2023/12/22 02:13:47;;;;;;;3.40;1.15;;;21.30;73.60;;;;;;5036606;28;20480;-59
2023/12/22 02:16:21;;;;;;;1.60;1.10;;;21.30;73.50;;;;;;5037699;28;20201;-56
2023/12/22 02:18:51;;;;;;;1.70;1.07;;;21.30;73.50;;;;;;5034936;28;20452;-57
2023/12/22 02:21:18;;;;;;;1.30;0.83;;;21.30;73.50;;;;;;5035369;28;20456;-59
2023/12/22 02:23:48;;;;;;;1.40;1.00;;;21.30;73.50;;;;;;5037261;28;20464;-56
2023/12/22 02:26:22;;;;;;;1.10;0.90;;;21.30;73.40;;;;;;5036848;28;20457;-57
2023/12/22 02:28:50;;;;;;;1.57;0.80;;;21.20;73.50;;;;;;5037044;28;20471;-57
2023/12/22 02:31:19;;;;;;;1.17;0.70;;;21.20;73.50;;;;;;5035164;28;20524;-58
2023/12/22 02:33:48;;;;;;;1.40;0.90;;;21.20;73.50;;;;;;5035637;28;20926;-57
2023/12/22 02:36:17;;;;;;;3.27;1.20;;;21.20;73.40;;;;;;5037764;28;20464;-59
2023/12/22 02:38:47;;;;;;;1.80;0.90;;;21.20;73.50;;;;;;5037722;28;20462;-55
2023/12/22 02:41:14;;;;;;;2.20;0.80;;;21.20;73.40;;;;;;5034068;28;20466;-57
2023/12/22 02:43:41;;;;;;;1.37;1.00;;;21.20;73.40;;;;;;5035788;28;20218;-57
2023/12/22 02:46:14;;;;;;;1.27;0.90;;;21.20;73.50;;;;;;5038449;28;20461;-57
2023/12/22 02:48:41;;;;;;;1.47;0.80;;;21.10;73.50;;;;;;5037393;28;20501;-59
2023/12/22 02:51:08;;;;;;;1.10;0.73;;;21.10;74.20;;;;;;5034465;28;20465;-58
2023/12/22 02:53:34;;;;;;;1.53;0.90;;;21.10;73.50;;;;;;5034396;28;20484;-57
2023/12/22 02:56:03;;;;;;;2.03;0.73;;;21.10;73.20;;;;;;5036667;28;20466;-57
2023/12/22 02:58:30;;;;;;;2.38;0.88;;;21.10;73.40;;;;;;5037987;28;20538;-58
2023/12/22 03:00:56;;;;;;;2.60;1.27;;;21.10;73.30;;;;;;5040539;28;20199;-57
2023/12/22 03:03:23;;;;;;;1.20;0.77;;;21.20;73.60;;;;;;5039573;28;20476;-57
2023/12/22 03:05:50;;;;;;;1.27;1.17;;;21.10;73.50;;;;;;5034944;28;20492;-58
2023/12/22 03:08:16;;;;;;;2.13;1.30;;;21.10;73.40;;;;;;5037650;28;20461;-57
2023/12/22 03:10:43;;;;;;;1.20;0.80;;;21.10;73.50;;;;;;5038080;28;20233;-53
2023/12/22 03:13:11;;;;;;;1.23;0.80;;;21.10;73.30;;;;;;5037632;28;20457;-57
2023/12/22 03:15:38;;;;;;;1.30;0.80;;;21.10;73.40;;;;;;5035556;28;20462;-57
2023/12/22 03:18:05;;;;;;;1.23;0.90;;;21.10;73.50;;;;;;5035775;28;20468;-55
2023/12/22 03:20:32;;;;;;;2.20;0.80;;;21.10;73.40;;;;;;5036013;28;20492;-57
2023/12/22 03:22:59;;;;;;;1.63;1.00;;;21.10;73.50;;;;;;5033796;28;20225;-59
2023/12/22 03:25:25;;;;;;;1.27;0.90;;;21.10;73.40;;;;;;5037971;28;20858;-57
2023/12/22 03:27:52;;;;;;;1.98;0.90;;;21.00;73.20;;;;;;5038008;28;20461;-56
2023/12/22 03:30:20;;;;;;;1.33;0.90;;;21.10;73.50;;;;;;5036784;28;20202;-59
2023/12/22 03:32:47;;;;;;;1.20;0.80;;;21.00;73.40;;;;;;5036159;28;20471;-59
2023/12/22 03:35:14;;;;;;;1.58;0.90;;;21.00;73.90;;;;;;5034754;28;20228;-53
2023/12/22 03:37:40;;;;;;;1.73;1.10;;;21.00;73.30;;;;;;5035507;28;20199;-56
2023/12/22 03:40:09;;;;;;;1.73;0.97;;;21.00;73.30;;;;;;5037335;28;20445;-57
2023/12/22 03:42:36;;;;;;;1.87;0.80;;;21.00;73.20;;;;;;5040622;28;20460;-57
2023/12/22 03:45:03;;;;;;;2.57;0.97;;;21.00;73.30;;;;;;5039283;28;21551;-57
2023/12/22 03:47:31;;;;;;;2.42;1.00;;;21.00;73.30;;;;;;5036855;28;20461;-57
2023/12/22 03:49:57;;;;;;;1.10;0.80;;;21.00;73.30;;;;;;5039713;28;20210;-58
2023/12/22 03:52:24;;;;;;;1.20;0.80;;;21.00;73.20;;;;;;5036040;28;20214;-60
2023/12/22 03:54:51;;;;;;;1.20;1.00;;;21.00;73.40;;;;;;5038192;28;20488;-59
2023/12/22 03:57:18;;;;;;;1.40;0.77;;;21.00;73.30;;;;;;5037361;28;20289;-58
2023/12/22 03:59:44;;;;;;;1.30;0.90;;;21.00;73.30;;;;;;5040414;28;20462;-56
2023/12/22 04:02:11;;;;;;;1.90;0.88;;;21.00;73.40;;;;;;5037661;28;20452;-60
2023/12/22 04:04:40;;;;;;;2.03;0.70;;;21.00;73.40;;;;;;5037397;28;20230;-58
2023/12/22 04:07:06;;;;;;;1.40;0.80;;;21.00;73.30;;;;;;5034111;28;20463;-55
2023/12/22 04:09:33;;;;;;;1.80;1.10;;;21.00;73.20;;;;;;5036688;28;20210;-57
2023/12/22 04:12:00;;;;;;;1.43;1.00;;;21.00;73.30;;;;;;5037109;28;20198;-59
2023/12/22 04:14:27;;;;;;;1.73;1.00;;;21.00;73.40;;;;;;5037388;28;20477;-58
2023/12/22 04:16:53;;;;;;;2.95;0.90;;;21.00;73.50;;;;;;5035573;28;20857;-57
2023/12/22 04:19:20;;;;;;;1.57;0.90;;;21.00;73.40;;;;;;5037748;28;20183;-59
2023/12/22 04:21:48;;;;;;;1.58;0.73;;;21.00;73.30;;;;;;5034195;28;20457;-56
2023/12/22 04:24:15;;;;;;;1.27;0.90;;;21.00;73.40;;;;;;5037974;28;20203;-57
2023/12/22 04:26:42;;;;;;;1.30;0.80;;;20.90;73.30;;;;;;5038730;28;20484;-57
2023/12/22 04:29:09;;;;;;;1.45;1.35;;;20.90;73.30;;;;;;5038332;28;20194;-54
2023/12/22 04:31:36;;;;;;;1.67;1.23;;;21.00;73.30;;;;;;5036202;28;20191;-57
2023/12/22 04:34:02;;;;;;;1.45;0.70;;;20.90;73.10;;;;;;5036952;28;20284;-59
2023/12/22 04:36:29;;;;;;;3.87;1.17;;;20.90;73.20;;;;;;5037520;28;20559;-58
2023/12/22 04:38:57;;;;;;;2.47;1.00;;;20.90;73.20;;;;;;5040319;28;20465;-54
2023/12/22 04:41:24;;;;;;;1.60;0.82;;;20.90;73.20;;;;;;5036367;28;20458;-58
2023/12/22 04:43:51;;;;;;;2.25;0.90;;;20.90;73.10;;;;;;5035298;28;20543;-56
2023/12/22 04:46:17;;;;;;;1.25;0.85;;;20.90;73.20;;;;;;5038172;28;20194;-56
2023/12/22 04:48:44;;;;;;;1.73;0.70;;;20.90;73.20;;;;;;5039994;28;20199;-59
2023/12/22 04:51:11;;;;;;;1.67;1.23;;;20.90;73.20;;;;;;5032392;28;20465;-59
2023/12/22 04:53:38;;;;;;;2.65;0.80;;;20.90;73.20;;;;;;5035786;28;20205;-58
2023/12/22 04:56:06;;;;;;;1.20;0.73;;;20.90;73.20;;;;;;5031129;28;20191;-57
2023/12/22 04:58:33;;;;;;;1.42;0.90;;;20.90;73.10;;;;;;5033816;28;20489;-59
2023/12/22 05:01:00;;;;;;;1.27;0.80;;;20.90;73.10;;;;;;5034319;28;20614;-58
2023/12/22 05:03:26;;;;;;;1.90;1.00;;;20.90;73.30;;;;;;5035233;28;20211;-59
2023/12/22 05:05:53;;;;;;;1.63;1.00;;;20.90;73.10;;;;;;5032831;28;21451;-58
2023/12/22 05:08:20;;;;;;;1.87;0.90;;;20.90;73.10;;;;;;5032145;28;20566;-59
2023/12/22 05:10:47;;;;;;;1.00;0.68;;;20.90;73.10;;;;;;5028751;28;20457;-58
2023/12/22 05:13:15;;;;;;;2.33;1.27;;;20.90;73.10;;;;;;5032933;28;20194;-56
2023/12/22 05:15:42;;;;;;;2.33;0.90;;;20.90;73.20;;;;;;5033631;28;20485;-57
2023/12/22 05:18:09;;;;;;;1.70;1.00;;;20.90;73.10;;;;;;5034297;28;20211;-59
2023/12/22 05:20:36;;;;;;;1.33;0.90;;;20.90;73.20;;;;;;5031931;28;20531;-58
2023/12/22 05:23:02;;;;;;;2.00;0.80;;;20.90;73.10;;;;;;5033762;28;20853;-58
2023/12/22 05:25:29;;;;;;;2.30;0.87;;;20.90;72.90;;;;;;5030641;28;20199;-58
2023/12/22 05:27:56;;;;;;;1.60;0.98;;;20.90;72.90;;;;;;5033264;28;20618;-58
2023/12/22 05:30:24;;;;;;;1.63;0.80;;;20.90;72.90;;;;;;5033015;28;20210;-56
2023/12/22 05:32:51;;;;;;;1.27;0.70;;;20.90;73.00;;;;;;5033716;28;20464;-58
2023/12/22 05:35:18;;;;;;;1.55;0.82;;;20.90;72.80;;;;;;5033156;28;20481;-58
2023/12/22 05:37:44;;;;;;;1.08;0.85;;;20.90;72.90;;;;;;5035511;28;20198;-57
2023/12/22 05:40:11;;;;;;;1.20;0.70;;;20.80;72.80;;;;;;5034905;28;20198;-58
2023/12/22 05:42:38;;;;;;;1.30;0.80;;;20.80;72.90;;;;;;5034597;28;20191;-59
2023/12/22 05:45:06;;;;;;;1.55;0.90;;;20.80;72.80;;;;;;5031401;28;20201;-58
2023/12/22 05:47:34;;;;;;;1.63;1.00;;;20.80;72.90;;;;;;5036628;28;20201;-60
2023/12/22 05:50:01;;;;;;;3.33;0.80;;;20.90;73.20;;;;;;5036641;28;20453;-57
2023/12/22 05:52:28;;;;;;;1.43;0.80;;;20.80;73.20;;;;;;5036855;28;20748;-60
2023/12/22 05:54:55;;;;;;;3.13;1.23;;;20.80;73.10;;;;;;5030700;28;20474;-59
2023/12/22 05:57:21;;;;;;;1.63;0.70;;;20.90;73.30;;;;;;5035879;28;21013;-59
2023/12/22 05:59:48;;;;;;;3.25;1.00;;;20.90;73.90;;;;;;5033703;28;20467;-59
2023/12/22 06:02:15;;;;;;;1.30;0.80;;;20.80;73.10;;;;;;5038040;28;20203;-60
2023/12/22 06:04:43;;;;;;;2.85;0.90;;;20.80;73.10;;;;;;5038328;28;20473;-59
2023/12/22 06:07:11;;;;;;;1.10;0.70;;;20.80;72.90;;;;;;5034338;28;20192;-59
2023/12/22 06:09:39;;;;;;;2.10;0.90;;;20.80;73.10;;;;;;5037002;28;20198;-59
2023/12/22 06:12:08;;;;;;;1.42;0.82;;;20.80;73.20;;;;;;5037120;28;20195;-60
2023/12/22 06:14:34;;;;;;;1.10;0.80;;;20.80;73.00;;;;;;5037214;28;20742;-60
2023/12/22 06:17:02;;;;;;;1.00;0.70;;;20.80;73.20;;;;;;5035216;28;20508;-60
2023/12/22 06:19:30;;;;;;;2.53;0.80;;;20.80;73.20;;;;;;5034867;28;20200;-59
2023/12/22 06:21:59;;;;;;;1.23;0.80;;;20.80;73.10;;;;;;5034698;28;20207;-58
2023/12/22 06:24:26;;;;;;;1.80;1.17;;;20.80;73.10;;;;;;5036394;28;20559;-59
2023/12/22 06:26:53;;;;;;;1.50;0.90;;;20.80;73.00;;;;;;5033934;28;20285;-60
2023/12/22 06:29:20;;;;;;;2.20;0.70;;;20.80;72.90;;;;;;5035412;28;20667;-58
2023/12/22 06:31:50;;;;;;;1.00;0.70;;;20.80;73.00;;;;;;5034630;28;20809;-61
2023/12/22 06:34:17;;;;;;;1.05;0.70;;;20.80;72.90;;;;;;5038330;28;20194;-58
2023/12/22 06:36:43;;;;;;;1.92;0.95;;;20.80;73.10;;;;;;5036398;28;20551;-58
2023/12/22 06:39:12;;;;;;;1.40;0.83;;;20.80;72.90;;;;;;5040680;28;20182;-57
2023/12/22 06:41:38;;;;;;;1.17;0.80;;;20.80;72.90;;;;;;5040881;28;20462;-59
2023/12/22 06:44:05;;;;;;;1.00;0.70;;;20.80;73.10;;;;;;5039332;28;20790;-59
2023/12/22 06:46:32;;;;;;;1.80;0.80;;;20.70;72.90;;;;;;5036380;28;20198;-58
2023/12/22 06:48:59;;;;;;;1.20;0.85;;;20.80;73.20;;;;;;5035163;28;20264;-60
2023/12/22 06:51:27;;;;;;;0.90;0.70;;;20.80;73.20;;;;;;5033443;28;20191;-58
2023/12/22 06:53:55;;;;;;;1.20;0.70;;;20.80;73.20;;;;;;5029805;28;20452;-61
2023/12/22 06:56:24;;;;;;;1.93;0.97;;;20.80;73.40;;;;;;5034828;28;20319;-62
2023/12/22 06:58:52;;;;;;;1.10;0.70;;;20.80;73.60;;;;;;5033574;28;20457;-61
2023/12/22 07:01:21;;;;;;;1.45;1.05;;;20.80;73.90;;;;;;5034091;28;20210;-62
2023/12/22 07:03:48;;;;;;;1.30;0.67;;;20.90;73.80;;;;;;5036968;28;20593;-61
2023/12/22 07:06:15;;;;;;;1.75;1.00;;;20.90;74.80;;;;;;5036121;28;21204;-63
2023/12/22 07:08:42;;;;;;;1.40;0.80;;;20.90;75.00;;;;;;5033534;28;20229;-59
2023/12/22 07:11:09;;;;;;;1.47;0.73;;;20.90;74.30;;;;;;5033514;28;20224;-57
2023/12/22 07:13:37;;;;;;;1.20;0.70;;;20.90;74.40;;;;;;5034485;28;20954;-55
2023/12/22 07:16:04;;;;;;;1.00;0.70;;;20.90;74.40;;;;;;5034993;28;20222;-56
2023/12/22 07:18:31;;;;;;;1.40;0.90;;;20.90;74.60;;;;;;5035646;28;20453;-57
2023/12/22 07:20:58;;;;;;;1.10;0.70;;;20.90;74.40;;;;;;5035605;28;20203;-60
2023/12/22 07:23:24;;;;;;;1.10;0.60;;;20.90;74.70;;;;;;5027193;28;20206;-64
2023/12/22 07:25:51;;;;;;;1.17;0.80;;;20.90;74.90;;;;;;5033735;28;27250;-64
2023/12/22 07:28:18;;;;;;;0.90;0.67;;;20.90;74.90;;;;;;5038759;28;20532;-63
2023/12/22 07:30:46;;;;;;;3.43;0.80;;;20.90;75.30;;;;;;5035228;28;20460;-63
2023/12/22 07:33:13;;;;;;;2.80;2.60;;;20.90;75.30;;;;;;5036940;28;20456;-64
2023/12/22 07:35:40;;;;;;;2.00;0.70;;;21.00;75.50;;;;;;5038759;28;21282;-63
2023/12/22 07:38:06;;;;;;;0.90;0.70;;;21.00;75.70;;;;;;5038037;28;20460;-59
2023/12/22 07:40:33;;;;;;;2.03;0.70;;;21.00;75.80;;;;;;5034833;28;20212;-63
2023/12/22 07:43:00;;;;;;;2.47;0.80;;;21.10;75.70;;;;;;5029215;28;20457;-61
2023/12/22 07:45:26;;;;;;;1.27;1.00;;;21.10;75.90;;;;;;5034340;28;20209;-63
2023/12/22 07:47:54;;;;;;;1.30;0.70;;;21.20;76.00;;;;;;5037081;28;20455;-62
2023/12/22 07:50:21;;;;;;;0.90;0.70;;;21.20;76.10;;;;;;5036934;28;20457;-64
2023/12/22 07:52:50;;;;;;;1.20;0.70;;;21.20;76.20;;;;;;5032354;28;20949;-64
2023/12/22 07:55:17;;;;;;;0.97;0.63;;;21.30;76.30;;;;;;5037979;28;20566;-60
2023/12/22 07:57:44;;;;;;;1.07;0.80;;;21.30;75.90;;;;;;5038473;28;20942;-52
2023/12/22 08:00:11;;;;;;;1.20;0.70;;;21.40;76.20;;;;;;5032556;28;20475;-61
2023/12/22 08:02:38;;;;;;;1.23;0.77;;;21.40;76.20;;;;;;5036048;28;20548;-61
2023/12/22 08:05:06;;;;;;;1.83;0.90;;;21.40;76.00;;;;;;5035213;28;20473;-61
2023/12/22 08:07:33;;;;;;;1.10;0.70;;;21.50;76.10;;;;;;5036649;28;21062;-62
2023/12/22 08:10:01;;;;;;;1.47;0.70;;;21.50;76.00;;;;;;5040149;28;20460;-57
2023/12/22 08:12:28;;;;;;;0.90;0.60;;;21.50;75.90;;;;;;5036242;28;21046;-59
2023/12/22 08:14:54;;;;;;;2.20;0.90;;;21.60;75.90;;;;;;5035520;28;20460;-58
2023/12/22 08:17:21;;;;;;;1.43;1.10;;;21.60;75.70;;;;;;5036810;28;20456;-59
2023/12/22 08:19:48;;;;;;;1.07;0.67;;;21.70;75.60;;;;;;5034593;28;20971;-56
2023/12/22 08:22:16;;;;;;;1.53;0.80;;;21.70;75.30;;;;;;5038399;28;20464;-58
2023/12/22 08:24:43;;;;;;;1.40;0.70;;;21.70;75.10;;;;;;5034590;28;20468;-58
2023/12/22 08:27:10;;;;;;;1.43;0.80;;;21.70;75.00;;;;;;5036342;28;20454;-57
2023/12/22 08:29:36;;;;;;;1.50;1.37;;;21.80;75.00;;;;;;5030661;28;20468;-58
2023/12/22 08:32:04;;;;;;;1.63;0.70;;;21.80;75.00;;;;;;5034542;28;20481;-56
2023/12/22 08:34:30;;;;;;;1.70;1.20;;;21.80;74.80;;;;;;5032898;28;20464;-57
2023/12/22 08:36:57;;;;;;;1.40;0.97;;;21.80;74.80;;;;;;5041086;28;20507;-58
2023/12/22 08:39:26;;;;;;;1.00;0.70;;;21.80;74.60;;;;;;5038590;28;20515;-57
2023/12/22 08:41:53;;;;;;;1.10;0.80;;;21.80;74.50;;;;;;5033387;28;20541;-58
2023/12/22 08:44:19;;;;;;;1.17;0.70;;;21.80;74.40;;;;;;5038416;28;20550;-59
2023/12/22 08:46:46;;;;;;;1.10;0.60;;;21.80;74.20;;;;;;5037512;28;20473;-60
2023/12/22 08:49:13;;;;;;;1.10;0.90;;;21.80;74.20;;;;;;5034707;28;20488;-60
2023/12/22 08:51:41;;;;;;;1.40;0.90;;;21.80;74.10;;;;;;5035776;28;20810;-59
2023/12/22 08:54:07;;;;;;;2.67;1.30;;;21.80;73.70;;;;;;5032696;28;20461;-59
2023/12/22 08:56:35;;;;;;;2.80;1.03;;;21.80;72.90;;;;;;5031954;28;20473;-59
2023/12/22 08:59:02;;;;;;;3.47;1.17;;;21.70;72.60;;;;;;5034212;28;20457;-61
2023/12/22 09:01:29;;;;;;;4.30;1.83;;;21.70;73.20;;;;;;5031518;28;20449;-62
2023/12/22 09:03:55;;;;;;;16.87;1.40;;;21.70;71.60;;;;;;5031348;28;20965;-62
2023/12/22 09:06:24;;;;;;;5.30;1.00;;;21.80;72.20;;;;;;5034560;28;20476;-62
2023/12/22 09:08:52;;;;;;;2.90;1.00;;;21.80;72.30;;;;;;5035153;28;20535;-60
2023/12/22 09:11:20;;;;;;;2.10;1.00;;;21.80;72.50;;;;;;5034151;28;20590;-61
2023/12/22 09:13:48;;;;;;;1.37;0.90;;;21.80;72.80;;;;;;5031391;28;20896;-57
2023/12/22 09:16:21;;;;;;;4.70;1.50;;;21.90;72.80;;;;;;5034188;28;20472;-56
2023/12/22 09:18:49;;;;;;;1.90;1.00;;;21.90;72.90;;;;;;5034910;28;20488;-52
2023/12/22 09:21:17;;;;;;;2.23;1.07;;;21.90;73.00;;;;;;5031915;28;21446;-55
2023/12/22 09:23:46;;;;;;;4.63;1.10;;;21.90;73.10;;;;;;5037290;28;20462;-57
2023/12/22 09:26:12;;;;;;;3.33;1.20;;;21.90;73.10;;;;;;5036504;28;20556;-58
2023/12/22 09:28:39;;;;;;;1.80;0.83;;;21.90;73.10;;;;;;5036588;28;20470;-57
2023/12/22 09:31:07;;;;;;;2.30;0.80;;;22.00;73.30;;;;;;5035208;28;20484;-57
2023/12/22 09:33:34;;;;;;;1.50;1.20;;;22.00;73.40;;;;;;5035349;28;20454;-62
2023/12/22 09:36:01;;;;;;;2.70;1.33;;;22.00;73.40;;;;;;5033334;28;20470;-60
2023/12/22 09:38:29;;;;;;;1.33;0.83;;;22.00;73.40;;;;;;5032160;28;20942;-61
2023/12/22 09:40:56;;;;;;;2.13;1.07;;;22.00;73.50;;;;;;5035422;28;20461;-60
2023/12/22 09:43:24;;;;;;;1.90;1.20;;;22.00;73.50;;;;;;5035981;28;20457;-60
2023/12/22 09:45:51;;;;;;;1.67;0.90;;;22.00;73.50;;;;;;5035751;28;20974;-60
2023/12/22 09:48:26;;;;;;;1.97;1.07;;;22.00;73.50;;;;;;5034216;28;20490;-58
2023/12/22 09:50:54;;;;;;;1.50;0.90;;;22.00;73.50;;;;;;5032927;28;20742;-59
2023/12/22 09:53:21;;;;;;;2.07;1.33;;;22.00;73.60;;;;;;5036224;28;23195;-53
2023/12/22 09:55:50;;;;;;;2.27;1.20;;;22.00;73.60;;;;;;5034921;28;20484;-59
2023/12/22 09:58:17;;;;;;;1.17;0.83;;;22.00;73.50;;;;;;5034902;28;20876;-62
2023/12/22 10:00:44;;;;;;;1.43;0.70;;;22.00;73.60;;;;;;5029773;28;20464;-57
2023/12/22 10:03:12;;;;;;;1.57;1.10;;;22.00;73.60;;;;;;5034135;28;20480;-57
2023/12/22 10:05:41;;;;;;;2.50;0.90;;;22.10;73.70;;;;;;5033466;28;20546;-57
2023/12/22 10:08:11;;;;;;;2.53;0.90;;;22.10;73.60;;;;;;5035431;28;20457;-59
2023/12/22 10:10:39;;;;;;;1.77;1.07;;;22.10;73.50;;;;;;5030785;28;20820;-56
2023/12/22 10:13:09;;;;;;;14.73;1.20;;;22.10;73.60;;;;;;5036486;28;20489;-61
2023/12/22 10:15:38;;;;;;;1.50;1.00;;;22.10;73.60;;;;;;5036846;28;20481;-53
2023/12/22 10:18:06;;;;;;;3.20;0.93;;;22.10;73.60;;;;;;5033142;28;22080;-58
2023/12/22 10:20:33;;;;;;;1.50;0.90;;;22.10;73.50;;;;;;5036857;28;20818;-56
2023/12/22 10:23:01;;;;;;;2.80;1.10;;;22.10;73.60;;;;;;5031151;28;20560;-60
2023/12/22 10:25:29;;;;;;;1.53;0.90;;;22.10;73.50;;;;;;5032136;28;20814;-56
2023/12/22 10:27:55;;;;;;;1.80;0.90;;;22.10;73.50;;;;;;5035714;28;21000;-59
2023/12/22 10:30:24;;;;;;;1.57;1.00;;;22.10;73.50;;;;;;5032933;28;20480;-58
2023/12/22 10:32:52;;;;;;;1.43;1.07;;;22.10;73.50;;;;;;5031967;28;20461;-60
2023/12/22 10:35:19;;;;;;;1.73;1.13;;;22.10;73.50;;;;;;5031820;28;20532;-56
2023/12/22 10:37:46;;;;;;;4.70;1.33;;;22.10;73.60;;;;;;5033888;28;20489;-57
2023/12/22 10:40:15;;;;;;;1.60;1.00;;;22.20;73.80;;;;;;5034600;28;20456;-55
2023/12/22 10:42:42;;;;;;;2.10;1.10;;;22.20;73.90;;;;;;5036191;28;20466;-57
2023/12/22 10:45:09;;;;;;;1.20;0.70;;;22.20;74.00;;;;;;5035683;28;20457;-60
2023/12/22 10:47:36;;;;;;;1.60;0.80;;;22.20;73.90;;;;;;5033640;28;20468;-55
2023/12/22 10:50:04;;;;;;;2.03;0.90;;;22.30;74.00;;;;;;5035148;28;20450;-57
2023/12/22 10:52:31;;;;;;;1.53;1.17;;;22.30;74.70;;;;;;5038794;28;20461;-56
2023/12/22 10:54:58;;;;;;;1.40;0.90;;;22.30;73.90;;;;;;5030302;28;20464;-52
2023/12/22 10:57:27;;;;;;;1.27;0.80;;;22.30;73.90;;;;;;5037467;28;20480;-55
2023/12/22 10:59:57;;;;;;;1.10;0.87;;;22.30;73.90;;;;;;5026839;28;20553;-59
2023/12/22 11:02:27;;;;;;;1.57;0.87;;;22.30;73.90;;;;;;5037960;28;20540;-58
2023/12/22 11:04:58;;;;;;;1.30;1.00;;;22.30;73.80;;;;;;5038049;28;20476;-62
2023/12/22 11:07:26;;;;;;;1.87;0.90;;;22.40;74.00;;;;;;5037468;28;21087;-62
2023/12/22 11:09:56;;;;;;;1.40;0.97;;;22.40;74.00;;;;;;5034191;28;20466;-63
2023/12/22 11:12:26;;;;;;;2.17;1.23;;;22.40;74.20;;;;;;5032444;28;20465;-64
2023/12/22 11:14:55;;;;;;;2.33;1.00;;;22.40;74.00;;;;;;5035888;28;20583;-64
2023/12/22 11:17:23;;;;;;;2.77;0.90;;;22.40;74.00;;;;;;5037719;28;20476;-64
2023/12/22 11:19:51;;;;;;;2.03;0.80;;;22.40;73.80;;;;;;5034134;28;20453;-64
2023/12/22 11:22:19;;;;;;;1.10;1.00;;;22.40;73.80;;;;;;5033164;28;21333;-63
2023/12/22 11:24:48;;;;;;;1.20;0.90;;;22.40;73.70;;;;;;5039523;28;20477;-63
2023/12/22 11:27:18;;;;;;;1.10;0.70;;;22.50;73.90;;;;;;5044149;28;20461;-62
2023/12/22 11:29:49;;;;;;;2.13;0.90;;;22.50;73.90;;;;;;5042944;28;20851;-63
2023/12/22 11:32:16;;;;;;;1.40;0.80;;;22.50;73.90;;;;;;5037928;28;20499;-62
2023/12/22 11:34:44;;;;;;;1.93;1.10;;;22.50;73.80;;;;;;5040098;28;20501;-63
2023/12/22 11:37:12;;;;;;;2.90;1.00;;;22.50;73.80;;;;;;5027873;28;20924;-64
2023/12/22 11:39:39;;;;;;;1.07;0.70;;;22.50;73.90;;;;;;5041674;28;20831;-62
2023/12/22 11:42:09;;;;;;;4.00;0.90;;;22.60;73.60;;;;;;5039295;28;20579;-63
2023/12/22 11:44:36;;;;;;;3.23;1.10;;;22.60;73.50;;;;;;5032073;28;20465;-59
2023/12/22 11:47:08;;;;;;;5.00;1.00;;;22.60;73.50;;;;;;5034891;28;21387;-65
2023/12/22 11:49:35;;;;;;;1.57;0.80;;;22.60;73.50;;;;;;5040779;28;20476;-63
2023/12/22 11:52:11;;;;;;;4.37;1.37;;;22.60;73.60;;;;;;5035468;28;20457;-62
2023/12/22 11:54:49;;;;;;;1.80;0.90;;;22.60;73.10;;;;;;5037095;28;20459;-63
2023/12/22 11:57:38;;;;;;;1.43;0.90;;;22.60;72.90;;;;;;5035637;28;21109;-64
2023/12/22 12:00:09;;;;;;;1.50;0.90;;;22.70;73.30;;;;;;5034419;28;21007;-64
2023/12/22 12:02:38;;;;;;;1.67;1.20;;;22.70;73.30;;;;;;5035584;28;20458;-62
2023/12/22 12:05:07;;;;;;;1.60;1.00;;;22.70;73.30;;;;;;5037187;28;20555;-68
2023/12/22 12:07:44;;;;;;;4.17;0.90;;;22.70;73.00;;;;;;5034492;28;20993;-61
2023/12/22 12:10:11;;;;;;;6.87;1.00;;;22.70;73.10;;;;;;5036956;28;20460;-60
2023/12/22 12:12:38;;;;;;;3.03;1.07;;;22.70;73.00;;;;;;5037217;28;20468;-60
2023/12/22 12:15:10;;;;;;;1.43;0.97;;;22.70;73.10;;;;;;5035972;28;20463;-61
2023/12/22 12:17:42;;;;;;;1.73;1.00;;;22.80;72.90;;;;;;5039259;28;20485;-58
2023/12/22 12:20:10;;;;;;;1.27;0.80;;;22.80;73.10;;;;;;5037298;28;20458;-59
2023/12/22 12:22:39;;;;;;;1.80;0.80;;;22.80;73.10;;;;;;5036378;28;20484;-58
2023/12/22 12:25:09;;;;;;;1.23;0.97;;;22.80;73.10;;;;;;5038582;28;20550;-61
2023/12/22 12:27:38;;;;;;;1.97;0.80;;;22.80;73.10;;;;;;5035775;28;20457;-61
2023/12/22 12:30:11;;;;;;;1.43;0.90;;;22.80;73.10;;;;;;5036863;28;20463;-60
2023/12/22 12:32:39;;;;;;;2.00;0.90;;;22.90;73.00;;;;;;5037865;28;20465;-62
2023/12/22 12:35:08;;;;;;;2.13;0.90;;;22.90;73.20;;;;;;5035134;28;20481;-62
2023/12/22 12:37:34;;;;;;;1.37;0.80;;;22.90;73.00;;;;;;5038613;28;20479;-64
2023/12/22 12:40:04;;;;;;;1.37;0.70;;;22.90;73.00;;;;;;5038252;28;20795;-64
2023/12/22 12:42:32;;;;;;;1.77;0.90;;;22.90;73.20;;;;;;5036521;28;20946;-63
2023/12/22 12:44:59;;;;;;;1.50;0.80;;;23.00;73.20;;;;;;5035506;28;20542;-63
2023/12/22 12:47:25;;;;;;;2.80;1.03;;;23.00;72.90;;;;;;5037460;28;20888;-61